Main page
Satellite images 15-day forecastsClimateMarine weather Cyclones Lightning AirportsFAQ Newsletter About
Weather : Europe Africa North America South America Asia Australia-Oceania Others
Languages Contact

Gdańsk, Poland

Lech Wałęsa

latitude: 54-23N, longitude: 018-28E, elevation: 135 m


METAR: EPGD 290730Z 28006KT 240V310 CAVOK 17/10 Q1016
short-TAF: out of date (45386 hours)
long-TAF: EPGD 290530Z 2906/3006 VRB02KT 9999 SCT040 TEMPO 3000/3006 SHRA BKN030CB PROB40 3002/3006 BKN005

Time: 10:00 (08:00 UTC)

Current weather observation

The report was made 30 minutes ago, at 07:30 UTC  
Wind 06 kt from the West, varying between West/Southwest and Northwest
Temperature 17°C
Humidity 63%
Pressure 1016 hPa
Visibility 10 km or more
no clouds below 1500 m and no cumulonimbus

Change units

Forecast

The report was made 2 hours and 27 minutes ago, at 05:33 UTC  
Forecast valid from 29 at 06 UTC to 30 at 06 UTC
Wind 02 kt from variable directions
Visibility 10 km or more
Scattered clouds at a height of 4000 ft
Temporary
from 30 at 00 UTC to 30 at 06 UTC
Broken clouds at a height of 3000 ft , Cumulonimbus.
rain showers
Probability 40%
from 30 at 02 UTC to 30 at 06 UTC
Broken clouds at a height of 500 ft
The information on this site is subject to a disclaimer
Weather : Europe Africa North America South America Asia Australia-Oceania Others
Satellite images 15-day forecastsClimateMarine weather Cyclones Lightning AirportsFAQ Languages Contact Newsletter About